Time;durP1;ratioP1;P1;durP2;ratioP2;P2;SDS_P1;SDS_P2;PMS_P1;PMS_P2;Temp;Humidity;BMP_temperature;BMP_pressure;BME280_temperature;BME280_humidity;BME280_pressure;Samples;Min_cycle;Max_cycle;Signal;HPM_P1;HPM_P2
2023/06/27 00:02:12;;;;;;;12.53;3.80;;;;;;;15.97;73.52;101835.81;5325249;28;20119;-68
2023/06/27 00:04:43;;;;;;;9.80;4.10;;;;;;;16.02;73.46;101831.31;5325004;28;20024;-68
2023/06/27 00:07:15;;;;;;;12.00;3.73;;;;;;;16.10;73.48;101825.03;5324910;28;20023;-68
2023/06/27 00:09:46;;;;;;;10.97;3.33;;;;;;;15.97;73.83;101835.81;5325425;28;20509;-68
2023/06/27 00:12:18;;;;;;;12.73;4.27;;;;;;;15.93;74.11;101831.47;5325114;28;20475;-68
2023/06/27 00:14:49;;;;;;;10.50;4.25;;;;;;;15.89;74.22;101827.19;5325210;28;20108;-68
2023/06/27 00:17:22;;;;;;;10.33;4.10;;;;;;;15.84;74.68;101826.38;5324807;28;20500;-68
2023/06/27 00:19:57;;;;;;;16.17;4.82;;;;;;;15.80;74.86;101828.19;5324802;28;20413;-68
2023/06/27 00:22:29;;;;;;;7.10;3.75;;;;;;;15.75;74.91;101826.53;5324745;28;20048;-67
2023/06/27 00:25:00;;;;;;;8.70;3.97;;;;;;;15.76;74.89;101830.88;5325085;28;20058;-67
2023/06/27 00:27:33;;;;;;;12.70;5.00;;;;;;;15.71;75.39;101824.84;5325078;28;20123;-67
2023/06/27 00:30:05;;;;;;;14.00;4.15;;;;;;;15.69;75.51;101835.38;5324649;28;20112;-68
2023/06/27 00:32:36;;;;;;;13.13;4.00;;;;;;;15.79;75.10;101839.63;5325106;28;20524;-68
2023/06/27 00:35:08;;;;;;;11.43;3.53;;;;;;;15.86;75.49;101828.09;5325015;28;20039;-68
2023/06/27 00:37:40;;;;;;;10.07;3.58;;;;;;;15.81;75.58;101829.94;5324964;28;20151;-67
2023/06/27 00:40:11;;;;;;;11.20;4.27;;;;;;;15.62;75.60;101828.50;5325036;28;20081;-68
2023/06/27 00:42:43;;;;;;;10.10;3.97;;;;;;;15.65;75.80;101825.84;5324822;28;20036;-67
2023/06/27 00:45:14;;;;;;;11.70;4.40;;;;;;;15.56;75.80;101818.94;5324846;28;20110;-67
2023/06/27 00:47:46;;;;;;;12.93;3.77;;;;;;;15.64;75.68;101824.94;5324831;28;20404;-67
2023/06/27 00:50:21;;;;;;;10.63;3.77;;;;;;;15.50;76.48;101826.94;5324286;28;20059;-67
2023/06/27 00:52:55;;;;;;;18.30;4.18;;;;;;;15.51;76.30;101831.31;5324706;28;20035;-69
2023/06/27 00:55:28;;;;;;;13.80;4.78;;;;;;;15.55;76.46;101827.72;5325892;28;20023;-68
2023/06/27 00:58:00;;;;;;;12.70;3.90;;;;;;;15.53;76.47;101832.13;5328596;28;20366;-68
2023/06/27 01:00:31;;;;;;;12.63;4.75;;;;;;;15.58;76.71;101834.69;5327313;28;20027;-67
2023/06/27 01:03:03;;;;;;;12.47;4.83;;;;;;;15.47;76.69;101837.50;5328380;28;20032;-68
2023/06/27 01:05:35;;;;;;;11.87;3.97;;;;;;;15.59;76.55;101831.19;5328209;27;20470;-68
2023/06/27 01:08:31;;;;;;;12.38;4.38;;;;;;;15.50;76.70;101833.09;5328248;28;20035;-68
2023/06/27 01:11:15;;;;;;;12.90;3.53;;;;;;;15.51;76.93;101833.94;5328368;28;20486;-67
2023/06/27 01:13:53;;;;;;;11.90;4.20;;;;;;;15.44;77.21;101845.44;5328192;28;20023;-68
2023/06/27 01:16:29;;;;;;;9.15;3.53;;;;;;;15.32;77.48;101838.63;5328066;28;20047;-68
2023/06/27 01:19:01;;;;;;;9.23;3.35;;;;;;;15.25;78.03;101832.59;5327560;28;20081;-68
2023/06/27 01:21:34;;;;;;;8.77;3.50;;;;;;;15.26;78.30;101836.09;5309506;28;20051;-68
2023/06/27 01:24:07;;;;;;;11.07;4.15;;;;;;;15.18;78.63;101835.34;5327938;28;20463;-68
2023/06/27 01:26:39;;;;;;;14.10;4.22;;;;;;;15.20;78.67;101834.44;5327903;28;20027;-68
2023/06/27 01:29:11;;;;;;;11.50;4.47;;;;;;;15.11;78.79;101842.44;5328342;28;20046;-68
2023/06/27 01:31:52;;;;;;;12.18;4.13;;;;;;;15.06;79.42;101836.41;5327756;27;20032;-67
2023/06/27 01:34:32;;;;;;;13.65;4.15;;;;;;;15.07;79.11;101841.63;5327905;28;20114;-68
2023/06/27 01:37:16;;;;;;;14.43;4.60;;;;;;;14.97;79.80;101841.78;5327918;28;20028;-67
2023/06/27 01:39:53;;;;;;;14.93;4.07;;;;;;;14.95;80.00;101834.78;5327731;28;20474;-67
2023/06/27 01:42:31;;;;;;;9.38;3.83;;;;;;;15.06;80.17;101844.28;5327637;28;20024;-67
2023/06/27 01:45:04;;;;;;;10.45;4.10;;;;;;;14.95;80.12;101842.66;5327388;28;20032;-68
2023/06/27 01:47:40;;;;;;;9.30;4.07;;;;;;;14.81;81.11;101828.88;5326116;28;20176;-67
2023/06/27 01:50:12;;;;;;;12.27;4.63;;;;;;;15.03;80.45;101837.28;5327443;27;20030;-67
2023/06/27 01:52:44;;;;;;;9.02;3.88;;;;;;;15.01;80.43;101831.22;5327379;28;20031;-67
2023/06/27 01:55:15;;;;;;;10.13;5.03;;;;;;;14.91;80.55;101825.22;5327332;28;20031;-67
2023/06/27 01:57:47;;;;;;;13.27;4.27;;;;;;;14.89;81.08;101824.38;5327201;28;20028;-67
2023/06/27 02:00:19;;;;;;;13.00;4.20;;;;;;;14.91;81.78;101825.22;5325838;28;20076;-67
2023/06/27 02:02:50;;;;;;;11.10;4.22;;;;;;;14.87;81.72;101831.38;5327291;28;20030;-67
2023/06/27 02:05:22;;;;;;;12.53;4.47;;;;;;;14.89;81.65;101819.13;5326138;28;20032;-67
2023/06/27 02:07:53;;;;;;;13.00;4.53;;;;;;;14.93;81.57;101820.81;5326538;28;20032;-69
2023/06/27 02:10:24;;;;;;;11.73;4.00;;;;;;;14.84;81.82;101817.44;5326977;28;20442;-67
2023/06/27 02:12:56;;;;;;;13.20;4.33;;;;;;;14.85;82.25;101819.19;5327051;28;20042;-67
2023/06/27 02:15:27;;;;;;;16.37;4.27;;;;;;;14.82;82.66;101814.84;5326919;28;20590;-68
2023/06/27 02:17:59;;;;;;;12.10;4.30;;;;;;;14.75;82.73;101816.69;5326785;28;20028;-67
2023/06/27 02:20:31;;;;;;;8.90;4.05;;;;;;;14.87;82.72;101820.03;5326320;28;20093;-68
2023/06/27 02:23:02;;;;;;;11.48;4.20;;;;;;;14.74;82.85;101809.69;5326617;28;20535;-67
2023/06/27 02:25:34;;;;;;;9.93;4.23;;;;;;;14.83;82.75;101811.34;5326809;28;20036;-68
2023/06/27 02:28:05;;;;;;;8.97;3.70;;;;;;;14.82;83.15;101806.97;5327151;28;20473;-67
2023/06/27 02:30:37;;;;;;;9.40;4.07;;;;;;;14.90;82.63;101810.34;5325344;28;20110;-67
2023/06/27 02:33:08;;;;;;;7.93;3.77;;;;;;;14.86;82.91;101808.69;5326438;28;20028;-67
2023/06/27 02:35:39;;;;;;;11.47;3.77;;;;;;;14.86;83.15;101803.44;5326926;28;20474;-68
2023/06/27 02:38:11;;;;;;;10.63;3.90;;;;;;;14.81;82.90;101807.88;5326576;28;20027;-67
2023/06/27 02:40:42;;;;;;;11.67;4.47;;;;;;;14.81;83.15;101809.63;5326711;28;20031;-68
2023/06/27 02:43:13;;;;;;;9.80;4.47;;;;;;;14.87;83.14;101804.28;5326569;28;20047;-68
2023/06/27 02:45:45;;;;;;;12.63;4.67;;;;;;;14.80;83.09;101800.03;5325070;28;20024;-68
2023/06/27 02:48:16;;;;;;;13.10;3.77;;;;;;;14.76;83.42;101805.31;5325847;28;20028;-70
2023/06/27 02:50:50;;;;;;;11.83;4.37;;;;;;;14.83;83.57;101805.19;5326273;28;20490;-68
2023/06/27 02:53:21;;;;;;;9.90;4.28;;;;;;;14.72;83.98;101806.22;5326040;28;20024;-68
2023/06/27 02:55:53;;;;;;;9.23;4.13;;;;;;;14.69;84.46;101808.91;5325169;28;20080;-70
2023/06/27 02:58:24;;;;;;;10.17;4.30;;;;;;;14.60;84.65;101801.13;5326132;28;20494;-68
2023/06/27 03:00:58;;;;;;;16.30;4.60;;;;;;;14.57;84.76;101801.16;5324799;28;20035;-68
2023/06/27 03:03:30;;;;;;;11.82;4.47;;;;;;;14.51;85.39;101802.09;5326011;28;20028;-67
2023/06/27 03:06:08;;;;;;;15.10;4.00;;;;;;;14.50;85.59;101807.38;5326152;28;20062;-68
2023/06/27 03:08:40;;;;;;;16.20;4.20;;;;;;;14.52;85.96;101819.59;5325844;28;20037;-69
2023/06/27 03:11:11;;;;;;;11.37;4.67;;;;;;;14.46;85.92;101814.41;5325762;28;20027;-66
2023/06/27 03:13:43;;;;;;;15.27;5.37;;;;;;;14.38;86.29;101805.78;5325840;28;20023;-68
2023/06/27 03:16:14;;;;;;;12.80;4.23;;;;;;;14.39;86.83;101803.13;5325696;28;20119;-67
2023/06/27 03:18:46;;;;;;;11.77;4.33;;;;;;;14.47;86.73;101817.91;5324270;28;20043;-68
2023/06/27 03:21:17;;;;;;;11.97;3.70;;;;;;;14.35;87.23;101816.31;5324550;28;20114;-68
2023/06/27 03:23:49;;;;;;;10.93;4.20;;;;;;;14.33;87.17;101818.06;5325656;28;20274;-68
2023/06/27 03:26:23;;;;;;;10.60;4.23;;;;;;;14.29;87.62;101816.38;5325644;28;20513;-68
2023/06/27 03:28:54;;;;;;;17.35;5.63;;;;;;;14.29;87.70;101814.59;5324216;28;20038;-68
2023/06/27 03:31:26;;;;;;;15.97;4.47;;;;;;;14.29;87.72;101813.75;5325361;28;20031;-68
2023/06/27 03:33:59;;;;;;;20.00;6.27;;;;;;;14.22;88.39;101816.44;5325939;28;20269;-68
2023/06/27 03:36:33;;;;;;;12.13;4.78;;;;;;;14.20;88.63;101807.72;5325472;28;20161;-68
2023/06/27 03:39:04;;;;;;;9.68;3.78;;;;;;;14.21;89.14;101814.69;5325373;28;20028;-68
2023/06/27 03:41:36;;;;;;;10.27;4.37;;;;;;;14.25;88.91;101812.94;5325409;28;20074;-68
2023/06/27 03:44:08;;;;;;;12.20;4.67;;;;;;;14.19;89.24;101813.84;5325512;28;20031;-68
2023/06/27 03:46:40;;;;;;;14.23;5.38;;;;;;;14.15;89.78;101816.53;5325306;28;20031;-67
2023/06/27 03:49:11;;;;;;;12.10;4.17;;;;;;;14.10;90.18;101811.31;5324958;28;20383;-68
2023/06/27 03:51:42;;;;;;;17.43;4.60;;;;;;;14.16;89.89;101816.50;5325309;28;20447;-67
2023/06/27 03:54:14;;;;;;;11.20;4.37;;;;;;;14.06;90.33;101814.88;5323903;28;20062;-67
2023/06/27 03:56:46;;;;;;;17.70;5.27;;;;;;;14.01;90.75;101827.19;5325485;28;20503;-68
2023/06/27 03:59:17;;;;;;;9.98;4.18;;;;;;;14.01;90.91;101820.16;5325165;28;20372;-68
2023/06/27 04:01:49;;;;;;;12.07;4.87;;;;;;;13.95;91.38;101827.22;5325382;28;20040;-68
2023/06/27 04:04:20;;;;;;;12.90;4.70;;;;;;;14.06;91.86;101835.00;5325148;28;20110;-68
2023/06/27 04:06:51;;;;;;;15.00;4.60;;;;;;;13.97;91.61;101831.56;5323984;28;20099;-68
2023/06/27 04:09:23;;;;;;;13.10;4.40;;;;;;;13.93;91.58;101824.63;5324085;28;20036;-68
2023/06/27 04:11:54;;;;;;;12.37;4.80;;;;;;;14.00;91.86;101826.28;5324980;28;20036;-69
2023/06/27 04:14:27;;;;;;;11.63;4.63;;;;;;;13.91;91.86;101823.78;5325221;28;20114;-68
2023/06/27 04:16:59;;;;;;;16.05;4.70;;;;;;;13.90;92.23;101824.66;5324966;28;20273;-68
2023/06/27 04:19:30;;;;;;;16.13;4.90;;;;;;;13.84;92.39;101830.81;5318407;28;20039;-67
2023/06/27 04:22:02;;;;;;;11.97;5.10;;;;;;;13.84;93.30;101819.47;5314826;28;20094;-66
2023/06/27 04:24:34;;;;;;;19.55;6.78;;;;;;;13.86;93.63;101815.97;5313453;28;20023;-67
2023/06/27 04:27:09;;;;;;;14.87;4.97;;;;;;;13.84;93.27;101830.81;5303908;28;20035;-68
2023/06/27 04:29:40;;;;;;;16.42;6.35;;;;;;;13.83;93.70;101828.22;5304908;28;20025;-66
2023/06/27 04:32:12;;;;;;;13.57;6.10;;;;;;;13.79;93.74;101827.38;5306673;28;20390;-67
2023/06/27 04:34:43;;;;;;;14.83;4.97;;;;;;;13.73;94.32;101826.56;5307968;28;20028;-68
2023/06/27 04:37:18;;;;;;;14.63;6.00;;;;;;;13.74;94.54;101828.31;5307745;28;20107;-66
2023/06/27 04:39:49;;;;;;;16.50;5.03;;;;;;;13.86;94.13;101834.31;5307768;28;20390;-67
2023/06/27 04:42:21;;;;;;;16.73;5.77;;;;;;;13.74;94.38;101830.94;5307484;28;20040;-68
2023/06/27 04:44:55;;;;;;;18.90;5.47;;;;;;;13.74;94.51;101836.19;5306611;28;20036;-69
2023/06/27 04:47:27;;;;;;;12.15;4.80;;;;;;;13.76;94.50;101839.63;5307475;28;20036;-68
2023/06/27 04:49:58;;;;;;;12.00;5.10;;;;;;;13.72;94.67;101843.16;5307289;28;20036;-69
2023/06/27 04:52:30;;;;;;;13.50;5.70;;;;;;;13.74;95.28;101839.66;5289233;28;20028;-69
2023/06/27 04:55:01;;;;;;;13.90;5.30;;;;;;;13.70;95.48;101843.19;5307233;28;20038;-67
2023/06/27 04:57:32;;;;;;;18.53;6.80;;;;;;;13.77;95.30;101844.00;5307425;28;20527;-67
2023/06/27 05:00:06;;;;;;;12.47;5.90;;;;;;;13.75;95.75;101844.03;5307045;28;20039;-67
2023/06/27 05:02:37;;;;;;;16.38;5.97;;;;;;;13.79;95.43;101845.72;5305934;28;20080;-68
2023/06/27 05:05:09;;;;;;;15.83;5.70;;;;;;;13.82;95.31;101834.34;5307064;28;20466;-68
2023/06/27 05:07:40;;;;;;;11.83;5.23;;;;;;;13.97;95.20;101838.56;5307298;28;20258;-68
2023/06/27 05:10:12;;;;;;;13.13;5.47;;;;;;;14.00;94.97;101841.16;5307422;28;20043;-68
2023/06/27 05:12:43;;;;;;;14.73;5.90;;;;;;;14.03;94.57;101843.75;5306923;28;20111;-68
2023/06/27 05:15:14;;;;;;;17.03;6.80;;;;;;;14.19;94.35;101839.22;5307036;28;20043;-68
2023/06/27 05:17:52;;;;;;;15.00;5.70;;;;;;;14.28;93.84;101838.22;5305490;28;20039;-68
2023/06/27 05:20:24;;;;;;;16.83;5.78;;;;;;;14.45;93.43;101838.03;5306557;28;20043;-68
2023/06/27 05:22:55;;;;;;;15.07;5.67;;;;;;;14.65;92.51;101845.69;5306776;28;20048;-68
2023/06/27 05:25:29;;;;;;;16.03;5.57;;;;;;;14.84;91.23;101844.56;5306776;28;20278;-67
2023/06/27 05:28:01;;;;;;;11.98;5.40;;;;;;;14.88;91.48;101846.25;5305517;28;20066;-69
2023/06/27 05:30:32;;;;;;;10.95;5.28;;;;;;;14.97;91.18;101847.03;5306427;28;20184;-69
2023/06/27 05:33:04;;;;;;;16.40;5.53;;;;;;;14.97;91.15;101849.66;5306725;28;20118;-69
2023/06/27 05:35:36;;;;;;;12.80;5.95;;;;;;;14.98;91.41;101844.38;5305264;28;20074;-69
2023/06/27 05:38:07;;;;;;;12.67;6.40;;;;;;;15.10;91.74;101845.94;5306522;28;20027;-69
2023/06/27 05:40:38;;;;;;;16.37;6.20;;;;;;;15.18;91.40;101844.06;5305850;28;20542;-68
2023/06/27 05:43:10;;;;;;;19.87;5.83;;;;;;;15.30;90.76;101845.66;5306159;28;20088;-69
2023/06/27 05:45:41;;;;;;;14.13;5.50;;;;;;;15.41;90.51;101848.13;5305173;28;20479;-69
2023/06/27 05:48:12;;;;;;;17.50;5.77;;;;;;;15.53;89.96;101844.44;5306218;28;20036;-68
2023/06/27 05:50:44;;;;;;;18.50;5.50;;;;;;;15.60;89.71;101841.69;5305714;28;20540;-69
2023/06/27 05:53:15;;;;;;;17.00;6.43;;;;;;;15.66;89.63;101838.94;5305881;28;20483;-69
2023/06/27 05:55:47;;;;;;;24.47;6.37;;;;;;;15.67;90.06;101839.81;5288131;28;20105;-69
2023/06/27 05:58:18;;;;;;;12.20;5.63;;;;;;;15.85;89.72;101838.63;5306195;28;20394;-68
2023/06/27 06:00:50;;;;;;;16.20;6.13;;;;;;;15.85;90.15;101839.50;5304602;28;20028;-69
2023/06/27 06:03:22;;;;;;;16.10;5.70;;;;;;;15.90;89.81;101846.44;5304601;28;20035;-69
2023/06/27 06:05:54;;;;;;;16.58;6.30;;;;;;;15.89;90.21;101839.44;5305799;28;20039;-69
2023/06/27 06:08:25;;;;;;;16.50;5.83;;;;;;;16.08;90.17;101846.09;5306056;28;20028;-69
2023/06/27 06:10:56;;;;;;;19.13;6.43;;;;;;;16.03;89.57;101848.84;5306050;28;20161;-69
2023/06/27 06:13:28;;;;;;;15.63;6.33;;;;;;;16.03;89.79;101842.69;5305822;28;20039;-68
2023/06/27 06:15:59;;;;;;;18.67;6.40;;;;;;;16.15;89.82;101837.22;5304370;28;20032;-68
2023/06/27 06:18:30;;;;;;;16.27;6.50;;;;;;;16.24;89.85;101830.88;5305042;28;20088;-69
2023/06/27 06:21:02;;;;;;;13.30;5.67;;;;;;;16.32;89.24;101838.63;5305443;28;20036;-68
2023/06/27 06:23:34;;;;;;;16.10;6.13;;;;;;;16.41;88.60;101846.34;5305725;28;20028;-69
2023/06/27 06:26:05;;;;;;;20.63;7.20;;;;;;;16.57;88.03;101844.28;5304338;28;20032;-69
2023/06/27 06:28:37;;;;;;;14.10;5.83;;;;;;;16.63;87.40;101854.69;5305391;28;20111;-68
2023/06/27 06:31:14;;;;;;;15.77;6.70;;;;;;;16.63;87.76;101845.91;5305367;28;20044;-69
2023/06/27 06:33:46;;;;;;;13.18;6.60;;;;;;;16.74;87.10;101846.53;5305483;28;20028;-69
2023/06/27 06:36:18;;;;;;;21.93;7.13;;;;;;;16.90;86.78;101852.38;5305145;28;20051;-67
2023/06/27 06:38:50;;;;;;;20.40;8.05;;;;;;;16.98;86.13;101860.09;5305112;28;20495;-69
2023/06/27 06:41:22;;;;;;;20.70;6.30;;;;;;;17.07;85.50;101865.19;5303847;28;20048;-67
2023/06/27 06:43:53;;;;;;;14.80;6.60;;;;;;;17.07;84.99;101865.19;5305267;28;20382;-69
2023/06/27 06:46:24;;;;;;;17.80;6.43;;;;;;;17.15;84.91;101873.75;5305189;28;20555;-68
2023/06/27 06:48:56;;;;;;;13.57;5.67;;;;;;;17.21;84.34;101878.00;5303260;28;20082;-68
2023/06/27 06:51:27;;;;;;;15.60;6.40;;;;;;;17.30;84.33;101876.03;5304839;28;20032;-68
2023/06/27 06:53:58;;;;;;;20.47;6.93;;;;;;;17.42;84.16;101871.38;5303754;28;20032;-68
2023/06/27 06:56:30;;;;;;;19.00;7.90;;;;;;;17.52;82.84;101864.97;5304969;28;20032;-68
2023/06/27 06:59:03;;;;;;;17.63;6.70;;;;;;;17.69;83.96;101872.47;5304943;28;20032;-69
2023/06/27 07:01:34;;;;;;;13.52;6.50;;;;;;;17.84;80.48;101872.09;5304729;28;20058;-68
2023/06/27 07:04:05;;;;;;;14.20;5.93;;;;;;;17.99;80.34;101872.63;5304738;28;20545;-69
2023/06/27 07:06:37;;;;;;;14.67;6.40;;;;;;;18.10;79.45;101878.47;5304836;28;20063;-70
2023/06/27 07:09:08;;;;;;;13.30;5.23;;;;;;;18.14;78.62;101871.34;5304844;28;20036;-69
2023/06/27 07:11:40;;;;;;;17.57;6.57;;;;;;;18.22;77.29;101869.34;5286749;28;20360;-69
2023/06/27 07:14:12;;;;;;;14.82;5.63;;;;;;;18.50;76.95;101864.16;5304712;28;20177;-69
2023/06/27 07:16:44;;;;;;;14.82;5.82;;;;;;;18.63;76.50;101869.06;5304428;28;20115;-69
2023/06/27 07:19:15;;;;;;;13.50;5.13;;;;;;;18.89;74.82;101878.91;5303969;28;20024;-69
2023/06/27 07:21:47;;;;;;;14.03;5.13;;;;;;;18.90;70.14;101888.56;5304407;28;20048;-69
2023/06/27 07:24:19;;;;;;;;;;;;;;;19.12;70.04;101879.06;5304926;28;20052;-70
2023/06/27 07:26:51;;;;;;;14.23;5.77;;;;;;;18.88;71.81;101874.53;5304589;28;19924;-67
2023/06/27 07:29:22;;;;;;;17.48;7.28;;;;;;;19.22;72.75;101873.50;5304575;28;20031;-68
2023/06/27 07:31:53;;;;;;;11.83;5.10;;;;;;;19.36;69.61;101865.97;5304272;28;20032;-68
2023/06/27 07:34:25;;;;;;;11.60;4.63;;;;;;;19.74;65.73;101866.50;5304477;28;20050;-68
2023/06/27 07:36:56;;;;;;;10.90;4.70;;;;;;;19.96;64.09;101874.56;5304237;28;20516;-69
2023/06/27 07:39:27;;;;;;;13.47;4.80;;;;;;;20.45;65.01;101865.78;5304110;28;20028;-69
2023/06/27 07:41:59;;;;;;;14.70;4.63;;;;;;;20.93;61.51;101867.56;5304176;28;20028;-69
2023/06/27 07:44:30;;;;;;;13.20;4.33;;;;;;;20.79;58.30;101872.53;5304611;28;20074;-69
2023/06/27 07:47:02;;;;;;;10.83;4.33;;;;;;;20.99;59.55;101869.94;5304135;28;20028;-68
2023/06/27 07:49:33;;;;;;;10.63;3.57;;;;;;;20.67;55.78;101872.06;5303645;28;20036;-68
2023/06/27 07:52:09;;;;;;;12.03;3.60;;;;;;;20.60;56.99;101873.19;5303825;28;20471;-69
2023/06/27 07:54:41;;;;;;;13.10;3.22;;;;;;;20.73;56.90;101871.81;5304509;28;20024;-68
2023/06/27 07:57:12;;;;;;;9.93;3.17;;;;;;;20.73;55.49;101869.16;5303958;28;20069;-68
2023/06/27 07:59:44;;;;;;;9.20;3.20;;;;;;;20.61;55.20;101868.72;5304244;28;20028;-68
2023/06/27 08:02:15;;;;;;;5.95;2.95;;;;;;;20.32;55.89;101865.41;5303725;28;20063;-69
2023/06/27 08:04:48;;;;;;;8.90;2.60;;;;;;;20.60;56.08;101867.88;5305561;28;20032;-68
2023/06/27 08:07:19;;;;;;;11.15;3.70;;;;;;;21.01;56.41;101868.13;5308145;28;20036;-68
2023/06/27 08:09:50;;;;;;;14.17;3.97;;;;;;;21.33;55.70;101867.72;5307230;28;20485;-70
2023/06/27 08:12:22;;;;;;;7.80;3.93;;;;;;;21.37;54.33;101872.84;5308209;28;20436;-69
2023/06/27 08:14:53;;;;;;;9.57;3.30;;;;;;;21.41;52.01;101877.13;5308000;28;20562;-69
2023/06/27 08:17:24;;;;;;;6.93;2.90;;;;;;;21.50;50.22;101865.28;5308329;28;20067;-69
2023/06/27 08:19:56;;;;;;;9.40;3.23;;;;;;;21.37;49.70;101872.00;5307781;28;20093;-68
2023/06/27 08:22:27;;;;;;;7.60;2.73;;;;;;;21.24;51.43;101866.34;5306742;28;20109;-68
2023/06/27 08:24:59;;;;;;;14.40;3.50;;;;;;;21.28;50.94;101870.56;5307904;28;20075;-68
2023/06/27 08:27:30;;;;;;;8.83;2.10;;;;;;;21.22;48.60;101862.84;5307835;28;20030;-68
2023/06/27 08:30:01;;;;;;;8.83;2.67;;;;;;;21.28;47.75;101870.56;5307857;28;20032;-68
2023/06/27 08:32:33;;;;;;;5.70;1.70;;;;;;;21.36;47.31;101872.91;5307717;28;20028;-68
2023/06/27 08:35:06;;;;;;;8.43;2.20;;;;;;;21.48;46.88;101873.31;5307695;28;20032;-69
2023/06/27 08:37:38;;;;;;;10.02;2.88;;;;;;;21.47;48.29;101871.53;5307714;28;20038;-69
2023/06/27 08:40:09;;;;;;;5.80;2.37;;;;;;;21.66;46.69;101870.81;5307395;28;20123;-69
2023/06/27 08:42:41;;;;;;;10.05;2.40;;;;;;;21.56;47.82;101866.81;5307691;28;20527;-69
2023/06/27 08:45:12;;;;;;;5.67;2.07;;;;;;;21.83;46.55;101863.00;5307667;28;20407;-69
2023/06/27 08:47:46;;;;;;;8.20;2.38;;;;;;;21.99;46.45;101862.31;5307623;28;20471;-69
2023/06/27 08:50:20;;;;;;;7.95;2.30;;;;;;;22.06;46.26;101854.94;5307054;28;20032;-69
2023/06/27 08:52:55;;;;;;;5.10;2.55;;;;;;;22.21;48.07;101856.94;5307730;28;20032;-69
2023/06/27 08:55:39;;;;;;;5.70;2.17;;;;;;;22.07;46.03;101854.03;5289335;28;20020;-69
2023/06/27 08:58:15;;;;;;;6.00;2.50;;;;;;;21.38;48.03;101860.44;5307055;28;20060;-67
2023/06/27 09:00:47;;;;;;;8.02;2.25;;;;;;;21.19;49.60;101845.31;5307181;28;20055;-68
2023/06/27 09:03:19;;;;;;;8.10;2.60;;;;;;;20.95;50.64;101855.94;5306944;28;20029;-68
2023/06/27 09:05:51;;;;;;;6.20;2.38;;;;;;;20.89;51.30;101852.69;5307284;28;20463;-68
2023/06/27 09:08:22;;;;;;;12.60;2.37;;;;;;;20.75;50.73;101846.16;5305876;28;20035;-68
2023/06/27 09:10:54;;;;;;;6.93;2.50;;;;;;;20.69;51.61;101851.69;5307018;28;20290;-68
2023/06/27 09:13:26;;;;;;;5.87;2.43;;;;;;;20.73;52.28;101852.41;5305722;28;20035;-68
2023/06/27 09:15:57;;;;;;;7.90;2.75;;;;;;;20.86;51.17;101858.09;5304511;28;20028;-68
2023/06/27 09:18:28;;;;;;;7.80;2.70;;;;;;;21.10;51.62;101854.47;5307059;28;20463;-69
2023/06/27 09:21:00;;;;;;;9.97;2.33;;;;;;;21.13;48.69;101854.34;5306439;28;20035;-69
2023/06/27 09:23:32;;;;;;;7.32;2.20;;;;;;;21.28;47.90;101854.66;5306617;28;20048;-69
2023/06/27 09:26:08;;;;;;;4.97;1.88;;;;;;;21.65;48.62;101846.09;5306864;28;20059;-69
2023/06/27 09:28:49;;;;;;;8.95;2.58;;;;;;;21.78;46.38;101848.19;5306527;28;20036;-68
2023/06/27 09:31:21;;;;;;;5.63;2.05;;;;;;;22.07;44.91;101857.53;5306666;28;20036;-68
2023/06/27 09:34:04;;;;;;;10.70;3.05;;;;;;;22.23;43.87;101849.75;5306622;28;20039;-68
2023/06/27 09:36:37;;;;;;;7.40;2.20;;;;;;;23.06;41.84;101856.56;5306750;28;20016;-69
2023/06/27 09:39:12;;;;;;;7.95;2.45;;;;;;;22.49;40.91;101859.25;5306640;28;20482;-69
2023/06/27 09:41:49;;;;;;;5.57;1.85;;;;;;;22.98;41.00;101856.06;5306490;28;20032;-68
2023/06/27 09:44:22;;;;;;;5.72;2.15;;;;;;;23.21;39.76;101857.63;5306571;28;20036;-68
2023/06/27 09:46:54;;;;;;;5.13;2.20;;;;;;;23.46;39.67;101854.63;5304986;28;20032;-69
2023/06/27 09:49:29;;;;;;;4.57;1.90;;;;;;;23.33;40.11;101863.28;5305963;28;20036;-69
2023/06/27 09:52:04;;;;;;;8.15;1.65;;;;;;;23.55;41.00;101863.06;5306021;28;20024;-68
2023/06/27 09:54:42;;;;;;;5.25;1.73;;;;;;;23.18;38.42;101881.72;5306093;28;20486;-69
2023/06/27 09:57:16;;;;;;;4.93;1.60;;;;;;;23.83;38.02;101866.09;5306137;28;20071;-69
2023/06/27 09:59:47;;;;;;;5.43;1.83;;;;;;;24.01;36.99;101861.59;5306076;28;20032;-68
2023/06/27 10:02:18;;;;;;;6.17;1.70;;;;;;;23.74;36.17;101863.00;5306151;28;20036;-68
2023/06/27 10:04:50;;;;;;;5.80;2.23;;;;;;;23.48;37.44;101863.38;5305991;28;20121;-69
2023/06/27 10:07:22;;;;;;;2.90;1.85;;;;;;;23.24;36.52;101865.47;5304702;28;20034;-70
2023/06/27 10:09:54;;;;;;;8.05;2.15;;;;;;;23.14;37.12;101863.34;5305670;28;20114;-69
2023/06/27 10:12:27;;;;;;;4.40;1.60;;;;;;;23.65;36.45;101866.97;5305736;28;20540;-68
2023/06/27 10:14:59;;;;;;;7.95;2.20;;;;;;;24.73;37.00;101846.22;5305670;28;20294;-69
2023/06/27 10:17:32;;;;;;;6.72;2.15;;;;;;;26.05;34.40;101854.66;5305641;28;20387;-69
2023/06/27 10:20:08;;;;;;;10.00;2.10;;;;;;;26.32;31.35;101860.09;5305104;28;20028;-69
2023/06/27 10:22:43;;;;;;;3.58;1.60;;;;;;;24.91;32.42;101868.31;5305754;28;20090;-68
2023/06/27 10:25:17;;;;;;;5.10;1.77;;;;;;;24.82;34.65;101860.84;5304310;28;20138;-69
2023/06/27 10:27:49;;;;;;;3.03;1.85;;;;;;;24.89;34.51;101848.88;5305185;28;20036;-69
2023/06/27 10:30:20;;;;;;;5.60;2.30;;;;;;;24.79;35.87;101858.34;5305289;28;20107;-69
2023/06/27 10:33:07;;;;;;;5.93;1.70;;;;;;;24.98;34.61;101857.31;5305267;28;20175;-69
2023/06/27 10:35:49;;;;;;;5.78;1.90;;;;;;;23.83;34.64;101873.22;5305845;28;20036;-68
2023/06/27 10:38:21;;;;;;;4.95;1.75;;;;;;;25.40;33.01;101864.69;5305310;28;20497;-68
2023/06/27 10:41:09;;;;;;;;;;;;;;;25.12;33.24;101870.72;5305457;28;20040;-68
2023/06/27 10:43:46;;;;;;;4.65;2.00;;;;;;;24.59;35.00;101856.78;5305133;28;20282;-69
2023/06/27 10:46:27;;;;;;;4.53;1.48;;;;;;;24.49;35.09;101858.19;5305029;28;20024;-69
2023/06/27 10:49:03;;;;;;;8.18;1.80;;;;;;;24.84;33.19;101858.97;5304800;28;20448;-70
2023/06/27 10:51:38;;;;;;;3.65;1.55;;;;;;;24.05;34.87;101853.47;5304822;28;20039;-69
2023/06/27 10:54:11;;;;;;;4.63;2.05;;;;;;;23.84;35.79;101854.50;5305145;28;20497;-69
2023/06/27 10:56:51;;;;;;;4.30;1.40;;;;;;;24.15;34.71;101854.69;5304841;28;20028;-69
2023/06/27 10:59:24;;;;;;;4.43;1.75;;;;;;;24.02;34.52;101844.69;5304869;28;20112;-68
2023/06/27 11:02:02;;;;;;;4.05;1.70;;;;;;;24.17;34.32;101855.47;5304763;28;20036;-70
2023/06/27 11:04:42;;;;;;;6.03;1.77;;;;;;;25.08;32.28;101842.50;5303698;28;20036;-70
2023/06/27 11:07:17;;;;;;;3.80;1.48;;;;;;;25.26;31.26;101853.91;5304760;28;20024;-70
2023/06/27 11:09:52;;;;;;;6.03;1.35;;;;;;;24.86;31.41;101861.50;5303252;28;20039;-69
2023/06/27 11:12:32;;;;;;;3.53;1.40;;;;;;;25.88;30.57;101848.50;5304322;28;20028;-70
2023/06/27 11:15:04;;;;;;;5.95;1.88;;;;;;;26.77;29.49;101852.81;5304755;28;20111;-70
2023/06/27 11:17:38;;;;;;;;;;;;;;;28.42;28.12;101854.22;5304993;28;20396;-71
2023/06/27 11:20:10;;;;;;;3.47;1.70;;;;;;;28.26;26.92;101849.13;5304035;28;20259;-69
2023/06/27 11:22:41;;;;;;;2.17;1.17;;;;;;;29.23;26.06;101855.53;5303844;28;20048;-69
2023/06/27 11:25:14;;;;;;;;;;;;;;;29.67;25.23;101863.84;5303468;28;20361;-69
2023/06/27 11:27:45;;;;;;;5.05;2.08;;;;;;;28.44;26.15;101847.78;5303239;28;19912;-70
2023/06/27 11:30:17;;;;;;;;;;;;;;;28.39;26.48;101852.63;5303483;28;20031;-69
2023/06/27 11:32:48;;;;;;;1.80;1.23;;;;;;;28.93;26.61;101846.06;5303209;28;19951;-69
2023/06/27 11:35:23;;;;;;;;;;;;;;;30.58;25.60;101852.22;5304714;28;20024;-70
2023/06/27 11:37:55;;;;;;;4.63;1.73;;;;;;;30.65;25.94;101842.66;5304452;28;20324;-69
2023/06/27 11:40:29;;;;;;;7.15;1.60;;;;;;;29.48;25.58;101853.66;5303583;28;20043;-70
2023/06/27 11:43:07;;;;;;;5.75;1.70;;;;;;;27.21;27.78;101857.09;5304194;28;20310;-69
2023/06/27 11:45:46;;;;;;;3.53;1.58;;;;;;;27.97;27.23;101850.19;5304075;28;20044;-69
2023/06/27 11:48:18;;;;;;;5.70;1.83;;;;;;;27.01;29.08;101857.53;5304389;28;20028;-69